• Join FlightAware (Why Join?)
  • Login
  • US Flag 
03:03AM EST


 

Airport Tracker/Info


-or-


 

Live Flight TrackerFlight Track Log ✈ UPS1131 ✈ 27-Jun-2013 ✈ KSYR - KBUF

Flight Track Log - Related Links

Times and Time Zones

All times are in EDT time to prevent confusion due to time zone crossing. See the UPS1131 flight status page for this flight to view local times or setup timezone preferences in your user account.

Time Position Orientation Groundspeed Altitude Reporting Facility
EDT Latitude Longitude Course Direction KTS MPH feet Rate Location/Type
10:02PM 43.1106 -76.1036 286° West 95 109 1,200  Level Boston Center
10:03PM 43.1161 -76.0614 80° East 181 208 2,600 2,160 Climbing Boston Center
10:04PM 43.1656 -76.0842 341° North 251 289 4,700 2,520 Climbing Boston Center
10:05PM 43.1714 -76.2558 273° West 312 359 9,000 2,520 Climbing Cleveland Center
10:06PM 43.1883 -76.3772 281° West 312 359 11,200 1,740 Climbing Cleveland Center
10:07PM 43.2119 -76.5122 284° West 338 389 12,500 1,740 Climbing Cleveland Center
10:08PM 43.2204 -76.6341 286° West  Level FlightAware Approximate
10:08PM 43.2358 -76.6619 282° West 380 437 14,700  Level Cleveland Center
10:09PM 43.2617 -76.8169 283° West 407 468 16,000 600 Climbing Cleveland Center
10:10PM 43.3325 -76.9411 308° West 405 466 16,000  Level Cleveland Center
10:11PM 43.4008 -77.0631 308° West 411 473 16,000  Level Cleveland Center
10:12PM 43.3783 -77.2156 259° West 375 432 16,000 -120 Level Cleveland Center
10:13PM 43.3325 -77.3636 247° West 389 448 15,800 -1,080 Descending Cleveland Center
10:14PM 43.2981 -77.4767 247° West 419 482 14,100 -2,100 Descending Cleveland Center
10:15PM 43.2442 -77.6447 246° West 409 471 11,600 -1,620 Descending Cleveland Center
10:16PM 43.2036 -77.7778 247° West 404 465 10,600 -780 Descending Cleveland Center
10:17PM 43.1689 -77.8933 248° West 365 420 10,100 -840 Descending Cleveland Center
10:18PM 43.1358 -77.9942 246° West 324 373 9,000 -1,080 Descending Cleveland Center
10:19PM 43.0961 -78.0897 240° Southwest 302 348 8,000 -540 Descending Cleveland Center
10:20PM 43.0439 -78.1772 231° Southwest 297 342 8,000  Level Cleveland Center
10:21PM 42.9914 -78.2642 230° Southwest 297 342 8,000  Level Cleveland Center
10:22PM 42.9450 -78.3483 233° Southwest 311 358 8,000  Level Cleveland Center
10:23PM 42.8925 -78.4381 231° Southwest 306 352 8,000 -1,380 Level Cleveland Center
10:25PM 42.8167 -78.5833 235° Southwest 275 316 4,300 -1,440 Descending Buffalo TRACON
10:26PM 42.8000 -78.6833 257° West 241 277 4,000 -360 Descending Buffalo TRACON
10:27PM 42.7833 -78.7667 255° West 213 245 3,600 -780 Descending Buffalo TRACON
10:28PM 42.8000 -78.8500 285° West 217 250 2,400 -1,140 Descending Buffalo TRACON